sensor_id;sensor_type;location;lat;lon;timestamp;P1;durP1;ratioP1;P2;durP2;ratioP2
56073;SDS011;41950;55.840;37.442;2023-09-19T00:01:34;14.30;;;11.63;;
56073;SDS011;41950;55.840;37.442;2023-09-19T00:04:01;13.23;;;11.55;;
56073;SDS011;41950;55.840;37.442;2023-09-19T00:06:29;15.02;;;11.57;;
56073;SDS011;41950;55.840;37.442;2023-09-19T00:08:57;14.25;;;11.15;;
56073;SDS011;41950;55.840;37.442;2023-09-19T00:11:26;13.77;;;11.57;;
56073;SDS011;41950;55.840;37.442;2023-09-19T00:13:52;13.88;;;11.77;;
56073;SDS011;41950;55.840;37.442;2023-09-19T00:16:18;12.88;;;10.95;;
56073;SDS011;41950;55.840;37.442;2023-09-19T00:18:44;11.60;;;10.40;;
56073;SDS011;41950;55.840;37.442;2023-09-19T00:21:11;13.68;;;11.00;;
56073;SDS011;41950;55.840;37.442;2023-09-19T00:23:38;12.15;;;10.38;;
56073;SDS011;41950;55.840;37.442;2023-09-19T00:26:11;14.85;;;11.43;;
56073;SDS011;41950;55.840;37.442;2023-09-19T00:28:39;14.32;;;9.95;;
56073;SDS011;41950;55.840;37.442;2023-09-19T00:31:04;12.27;;;9.90;;
56073;SDS011;41950;55.840;37.442;2023-09-19T00:33:35;14.25;;;10.68;;
56073;SDS011;41950;55.840;37.442;2023-09-19T00:36:03;14.50;;;11.32;;
56073;SDS011;41950;55.840;37.442;2023-09-19T00:38:31;12.00;;;10.68;;
56073;SDS011;41950;55.840;37.442;2023-09-19T00:40:57;13.68;;;10.75;;
56073;SDS011;41950;55.840;37.442;2023-09-19T00:43:27;13.05;;;11.57;;
56073;SDS011;41950;55.840;37.442;2023-09-19T00:45:56;14.70;;;11.55;;
56073;SDS011;41950;55.840;37.442;2023-09-19T00:48:23;17.20;;;10.75;;
56073;SDS011;41950;55.840;37.442;2023-09-19T00:50:53;12.30;;;10.73;;
56073;SDS011;41950;55.840;37.442;2023-09-19T00:53:20;13.40;;;10.43;;
56073;SDS011;41950;55.840;37.442;2023-09-19T00:55:49;14.82;;;10.75;;
56073;SDS011;41950;55.840;37.442;2023-09-19T00:58:17;12.75;;;10.55;;
56073;SDS011;41950;55.840;37.442;2023-09-19T01:00:44;11.65;;;10.20;;
56073;SDS011;41950;55.840;37.442;2023-09-19T01:03:11;11.90;;;10.45;;
56073;SDS011;41950;55.840;37.442;2023-09-19T01:05:39;11.90;;;10.48;;
56073;SDS011;41950;55.840;37.442;2023-09-19T01:08:05;13.00;;;10.73;;
56073;SDS011;41950;55.840;37.442;2023-09-19T01:10:32;12.00;;;10.07;;
56073;SDS011;41950;55.840;37.442;2023-09-19T01:15:41;11.93;;;10.32;;
56073;SDS011;41950;55.840;37.442;2023-09-19T01:23:21;11.90;;;10.10;;
56073;SDS011;41950;55.840;37.442;2023-09-19T01:31:02;11.48;;;9.80;;
56073;SDS011;41950;55.840;37.442;2023-09-19T01:33:52;11.40;;;9.55;;
56073;SDS011;41950;55.840;37.442;2023-09-19T01:36:22;11.93;;;9.70;;
56073;SDS011;41950;55.840;37.442;2023-09-19T01:38:49;10.40;;;9.23;;
56073;SDS011;41950;55.840;37.442;2023-09-19T01:41:17;13.02;;;9.20;;
56073;SDS011;41950;55.840;37.442;2023-09-19T01:43:51;12.40;;;9.45;;
56073;SDS011;41950;55.840;37.442;2023-09-19T01:49:09;11.55;;;9.43;;
56073;SDS011;41950;55.840;37.442;2023-09-19T01:54:29;13.63;;;10.00;;
56073;SDS011;41950;55.840;37.442;2023-09-19T01:57:09;11.27;;;10.07;;
56073;SDS011;41950;55.840;37.442;2023-09-19T01:59:43;11.80;;;10.05;;
56073;SDS011;41950;55.840;37.442;2023-09-19T02:02:14;12.07;;;9.60;;
56073;SDS011;41950;55.840;37.442;2023-09-19T02:04:43;11.25;;;10.02;;
56073;SDS011;41950;55.840;37.442;2023-09-19T02:07:08;12.10;;;10.35;;
56073;SDS011;41950;55.840;37.442;2023-09-19T02:09:34;11.93;;;9.50;;
56073;SDS011;41950;55.840;37.442;2023-09-19T02:12:01;12.35;;;10.23;;
56073;SDS011;41950;55.840;37.442;2023-09-19T02:14:28;12.60;;;10.52;;
56073;SDS011;41950;55.840;37.442;2023-09-19T02:16:55;12.88;;;11.57;;
56073;SDS011;41950;55.840;37.442;2023-09-19T02:19:21;13.40;;;10.77;;
56073;SDS011;41950;55.840;37.442;2023-09-19T02:21:47;12.60;;;10.93;;
56073;SDS011;41950;55.840;37.442;2023-09-19T02:24:14;12.48;;;11.18;;
56073;SDS011;41950;55.840;37.442;2023-09-19T02:26:40;13.15;;;10.80;;
56073;SDS011;41950;55.840;37.442;2023-09-19T02:29:07;12.80;;;11.40;;
56073;SDS011;41950;55.840;37.442;2023-09-19T02:31:32;14.07;;;12.18;;
56073;SDS011;41950;55.840;37.442;2023-09-19T02:33:58;13.68;;;11.77;;
56073;SDS011;41950;55.840;37.442;2023-09-19T02:36:25;13.65;;;11.65;;
56073;SDS011;41950;55.840;37.442;2023-09-19T02:38:51;14.00;;;12.10;;
56073;SDS011;41950;55.840;37.442;2023-09-19T02:41:17;12.70;;;11.40;;
56073;SDS011;41950;55.840;37.442;2023-09-19T02:43:42;13.10;;;11.77;;
56073;SDS011;41950;55.840;37.442;2023-09-19T02:46:08;12.35;;;11.05;;
56073;SDS011;41950;55.840;37.442;2023-09-19T02:48:34;12.85;;;11.48;;
56073;SDS011;41950;55.840;37.442;2023-09-19T02:51:01;13.68;;;11.88;;
56073;SDS011;41950;55.840;37.442;2023-09-19T02:53:26;14.77;;;12.48;;
56073;SDS011;41950;55.840;37.442;2023-09-19T02:55:52;12.52;;;10.60;;
56073;SDS011;41950;55.840;37.442;2023-09-19T02:58:18;12.57;;;11.27;;
56073;SDS011;41950;55.840;37.442;2023-09-19T03:00:44;14.98;;;11.25;;
56073;SDS011;41950;55.840;37.442;2023-09-19T03:03:15;13.43;;;11.07;;
56073;SDS011;41950;55.840;37.442;2023-09-19T03:05:43;12.00;;;10.75;;
56073;SDS011;41950;55.840;37.442;2023-09-19T03:08:13;13.15;;;11.75;;
56073;SDS011;41950;55.840;37.442;2023-09-19T03:10:42;13.55;;;11.40;;
56073;SDS011;41950;55.840;37.442;2023-09-19T03:13:08;11.95;;;10.65;;
56073;SDS011;41950;55.840;37.442;2023-09-19T03:15:35;12.65;;;11.30;;
56073;SDS011;41950;55.840;37.442;2023-09-19T03:18:04;14.00;;;11.48;;
56073;SDS011;41950;55.840;37.442;2023-09-19T03:20:31;13.93;;;10.90;;
56073;SDS011;41950;55.840;37.442;2023-09-19T03:22:56;12.63;;;10.90;;
56073;SDS011;41950;55.840;37.442;2023-09-19T03:25:22;12.68;;;10.82;;
56073;SDS011;41950;55.840;37.442;2023-09-19T03:27:48;11.90;;;10.68;;
56073;SDS011;41950;55.840;37.442;2023-09-19T03:30:14;11.73;;;10.27;;
56073;SDS011;41950;55.840;37.442;2023-09-19T03:32:46;11.23;;;10.05;;
56073;SDS011;41950;55.840;37.442;2023-09-19T03:35:15;13.93;;;10.52;;
56073;SDS011;41950;55.840;37.442;2023-09-19T03:37:42;11.30;;;9.82;;
56073;SDS011;41950;55.840;37.442;2023-09-19T03:40:08;11.52;;;10.18;;
56073;SDS011;41950;55.840;37.442;2023-09-19T03:42:39;13.57;;;10.75;;
56073;SDS011;41950;55.840;37.442;2023-09-19T03:45:06;12.63;;;10.68;;
56073;SDS011;41950;55.840;37.442;2023-09-19T03:47:34;11.90;;;10.55;;
56073;SDS011;41950;55.840;37.442;2023-09-19T03:50:00;11.05;;;9.52;;
56073;SDS011;41950;55.840;37.442;2023-09-19T03:52:26;12.30;;;10.60;;
56073;SDS011;41950;55.840;37.442;2023-09-19T03:54:51;12.80;;;10.52;;
56073;SDS011;41950;55.840;37.442;2023-09-19T03:57:17;12.00;;;10.40;;
56073;SDS011;41950;55.840;37.442;2023-09-19T03:59:46;11.95;;;10.27;;
56073;SDS011;41950;55.840;37.442;2023-09-19T04:02:12;13.85;;;10.98;;
56073;SDS011;41950;55.840;37.442;2023-09-19T04:04:51;12.15;;;10.85;;
56073;SDS011;41950;55.840;37.442;2023-09-19T04:07:17;11.90;;;10.70;;
56073;SDS011;41950;55.840;37.442;2023-09-19T04:09:48;12.73;;;11.43;;
56073;SDS011;41950;55.840;37.442;2023-09-19T04:12:14;13.35;;;11.25;;
56073;SDS011;41950;55.840;37.442;2023-09-19T04:14:42;12.07;;;10.82;;
56073;SDS011;41950;55.840;37.442;2023-09-19T04:17:08;12.27;;;10.40;;
56073;SDS011;41950;55.840;37.442;2023-09-19T04:19:35;12.68;;;10.43;;
56073;SDS011;41950;55.840;37.442;2023-09-19T04:22:01;12.88;;;10.95;;
56073;SDS011;41950;55.840;37.442;2023-09-19T04:24:26;13.07;;;10.93;;
56073;SDS011;41950;55.840;37.442;2023-09-19T04:26:52;13.40;;;11.70;;
56073;SDS011;41950;55.840;37.442;2023-09-19T04:29:18;13.40;;;11.48;;
56073;SDS011;41950;55.840;37.442;2023-09-19T04:31:44;12.85;;;11.45;;
56073;SDS011;41950;55.840;37.442;2023-09-19T04:34:11;14.13;;;12.70;;
56073;SDS011;41950;55.840;37.442;2023-09-19T04:36:41;14.27;;;12.77;;
56073;SDS011;41950;55.840;37.442;2023-09-19T04:39:07;14.80;;;12.88;;
56073;SDS011;41950;55.840;37.442;2023-09-19T04:41:33;14.93;;;12.68;;
56073;SDS011;41950;55.840;37.442;2023-09-19T04:43:59;13.82;;;12.35;;
56073;SDS011;41950;55.840;37.442;2023-09-19T04:46:25;15.15;;;12.80;;
56073;SDS011;41950;55.840;37.442;2023-09-19T04:48:51;14.85;;;12.80;;
56073;SDS011;41950;55.840;37.442;2023-09-19T04:51:16;13.82;;;12.40;;
56073;SDS011;41950;55.840;37.442;2023-09-19T04:53:43;14.27;;;12.48;;
56073;SDS011;41950;55.840;37.442;2023-09-19T04:56:09;17.92;;;13.55;;
56073;SDS011;41950;55.840;37.442;2023-09-19T04:58:35;14.80;;;13.32;;
56073;SDS011;41950;55.840;37.442;2023-09-19T05:01:00;15.85;;;14.02;;
56073;SDS011;41950;55.840;37.442;2023-09-19T05:03:27;15.90;;;13.70;;
56073;SDS011;41950;55.840;37.442;2023-09-19T05:05:53;14.38;;;12.88;;
56073;SDS011;41950;55.840;37.442;2023-09-19T05:08:18;14.80;;;13.20;;
56073;SDS011;41950;55.840;37.442;2023-09-19T05:10:44;15.35;;;13.27;;
56073;SDS011;41950;55.840;37.442;2023-09-19T05:13:10;15.82;;;14.18;;
56073;SDS011;41950;55.840;37.442;2023-09-19T05:15:37;15.80;;;13.95;;
56073;SDS011;41950;55.840;37.442;2023-09-19T05:18:04;16.13;;;14.40;;
56073;SDS011;41950;55.840;37.442;2023-09-19T05:20:32;16.85;;;15.00;;
56073;SDS011;41950;55.840;37.442;2023-09-19T05:25:29;18.00;;;15.23;;
56073;SDS011;41950;55.840;37.442;2023-09-19T05:27:57;17.65;;;15.70;;
56073;SDS011;41950;55.840;37.442;2023-09-19T05:30:24;17.23;;;15.52;;
56073;SDS011;41950;55.840;37.442;2023-09-19T05:32:52;17.70;;;15.50;;
56073;SDS011;41950;55.840;37.442;2023-09-19T05:35:19;19.48;;;16.17;;
56073;SDS011;41950;55.840;37.442;2023-09-19T05:37:47;17.17;;;15.30;;
56073;SDS011;41950;55.840;37.442;2023-09-19T05:40:19;18.83;;;15.98;;
56073;SDS011;41950;55.840;37.442;2023-09-19T05:42:45;17.80;;;16.00;;
56073;SDS011;41950;55.840;37.442;2023-09-19T05:45:12;19.77;;;15.65;;
56073;SDS011;41950;55.840;37.442;2023-09-19T05:47:41;18.35;;;16.15;;
56073;SDS011;41950;55.840;37.442;2023-09-19T05:50:11;17.70;;;15.90;;
56073;SDS011;41950;55.840;37.442;2023-09-19T05:52:37;16.48;;;14.70;;
56073;SDS011;41950;55.840;37.442;2023-09-19T05:55:06;16.13;;;14.52;;
56073;SDS011;41950;55.840;37.442;2023-09-19T05:57:33;15.75;;;14.02;;
56073;SDS011;41950;55.840;37.442;2023-09-19T06:00:08;16.15;;;14.52;;
56073;SDS011;41950;55.840;37.442;2023-09-19T06:02:35;16.25;;;14.07;;
56073;SDS011;41950;55.840;37.442;2023-09-19T06:05:04;15.05;;;13.45;;
56073;SDS011;41950;55.840;37.442;2023-09-19T06:07:32;15.80;;;14.00;;
56073;SDS011;41950;55.840;37.442;2023-09-19T06:10:05;17.27;;;13.82;;
56073;SDS011;41950;55.840;37.442;2023-09-19T06:12:32;18.20;;;13.77;;
56073;SDS011;41950;55.840;37.442;2023-09-19T06:15:03;15.20;;;13.30;;
56073;SDS011;41950;55.840;37.442;2023-09-19T06:17:31;15.65;;;13.93;;
56073;SDS011;41950;55.840;37.442;2023-09-19T06:19:56;15.93;;;14.15;;
56073;SDS011;41950;55.840;37.442;2023-09-19T06:22:23;15.63;;;12.77;;
56073;SDS011;41950;55.840;37.442;2023-09-19T06:24:49;14.90;;;13.25;;
56073;SDS011;41950;55.840;37.442;2023-09-19T06:27:15;14.88;;;13.32;;
56073;SDS011;41950;55.840;37.442;2023-09-19T06:29:41;15.70;;;13.60;;
56073;SDS011;41950;55.840;37.442;2023-09-19T06:32:10;15.70;;;13.93;;
56073;SDS011;41950;55.840;37.442;2023-09-19T06:34:36;15.63;;;13.98;;
56073;SDS011;41950;55.840;37.442;2023-09-19T06:37:04;14.98;;;13.23;;
56073;SDS011;41950;55.840;37.442;2023-09-19T06:39:31;17.17;;;13.38;;
56073;SDS011;41950;55.840;37.442;2023-09-19T06:41:57;16.35;;;13.73;;
56073;SDS011;41950;55.840;37.442;2023-09-19T06:44:23;18.35;;;14.10;;
56073;SDS011;41950;55.840;37.442;2023-09-19T06:46:50;16.02;;;13.57;;
56073;SDS011;41950;55.840;37.442;2023-09-19T06:49:17;14.90;;;13.25;;
56073;SDS011;41950;55.840;37.442;2023-09-19T06:51:43;16.25;;;14.65;;
56073;SDS011;41950;55.840;37.442;2023-09-19T06:54:09;18.67;;;15.23;;
56073;SDS011;41950;55.840;37.442;2023-09-19T06:56:35;17.83;;;13.73;;
56073;SDS011;41950;55.840;37.442;2023-09-19T06:59:01;15.98;;;14.40;;
56073;SDS011;41950;55.840;37.442;2023-09-19T07:01:28;17.15;;;14.35;;
56073;SDS011;41950;55.840;37.442;2023-09-19T07:03:54;18.67;;;15.05;;
56073;SDS011;41950;55.840;37.442;2023-09-19T07:06:20;18.13;;;14.73;;
56073;SDS011;41950;55.840;37.442;2023-09-19T07:08:46;17.10;;;14.10;;
56073;SDS011;41950;55.840;37.442;2023-09-19T07:11:11;18.30;;;14.98;;
56073;SDS011;41950;55.840;37.442;2023-09-19T07:13:38;22.02;;;14.73;;
56073;SDS011;41950;55.840;37.442;2023-09-19T07:16:04;17.13;;;14.00;;
56073;SDS011;41950;55.840;37.442;2023-09-19T07:18:30;17.27;;;15.45;;
56073;SDS011;41950;55.840;37.442;2023-09-19T07:20:57;20.60;;;15.15;;
56073;SDS011;41950;55.840;37.442;2023-09-19T07:23:30;19.45;;;15.75;;
56073;SDS011;41950;55.840;37.442;2023-09-19T07:26:03;18.27;;;15.85;;
56073;SDS011;41950;55.840;37.442;2023-09-19T07:28:30;19.00;;;14.82;;
56073;SDS011;41950;55.840;37.442;2023-09-19T07:30:56;16.98;;;14.88;;
56073;SDS011;41950;55.840;37.442;2023-09-19T07:33:22;17.05;;;15.25;;
56073;SDS011;41950;55.840;37.442;2023-09-19T07:35:51;17.38;;;15.00;;
56073;SDS011;41950;55.840;37.442;2023-09-19T07:38:17;17.17;;;15.32;;
56073;SDS011;41950;55.840;37.442;2023-09-19T07:40:43;18.88;;;15.30;;
56073;SDS011;41950;55.840;37.442;2023-09-19T07:43:09;20.25;;;15.32;;
56073;SDS011;41950;55.840;37.442;2023-09-19T07:45:34;17.25;;;15.43;;
56073;SDS011;41950;55.840;37.442;2023-09-19T07:48:01;15.43;;;13.88;;
56073;SDS011;41950;55.840;37.442;2023-09-19T07:50:29;18.52;;;14.65;;
56073;SDS011;41950;55.840;37.442;2023-09-19T07:52:55;17.50;;;14.70;;
56073;SDS011;41950;55.840;37.442;2023-09-19T07:55:22;17.27;;;15.48;;
56073;SDS011;41950;55.840;37.442;2023-09-19T07:57:54;17.75;;;14.50;;
56073;SDS011;41950;55.840;37.442;2023-09-19T08:00:20;18.02;;;15.32;;
56073;SDS011;41950;55.840;37.442;2023-09-19T08:02:46;17.65;;;15.77;;
56073;SDS011;41950;55.840;37.442;2023-09-19T08:05:13;18.67;;;16.67;;
56073;SDS011;41950;55.840;37.442;2023-09-19T08:07:42;19.67;;;15.63;;
56073;SDS011;41950;55.840;37.442;2023-09-19T08:10:10;18.00;;;16.30;;
56073;SDS011;41950;55.840;37.442;2023-09-19T08:12:41;19.40;;;16.55;;
56073;SDS011;41950;55.840;37.442;2023-09-19T08:15:21;18.92;;;16.40;;
56073;SDS011;41950;55.840;37.442;2023-09-19T08:17:47;18.30;;;16.38;;
56073;SDS011;41950;55.840;37.442;2023-09-19T08:20:13;19.15;;;17.05;;
56073;SDS011;41950;55.840;37.442;2023-09-19T08:22:47;19.63;;;17.13;;
56073;SDS011;41950;55.840;37.442;2023-09-19T08:25:17;18.45;;;16.27;;
56073;SDS011;41950;55.840;37.442;2023-09-19T08:27:45;19.08;;;17.10;;
56073;SDS011;41950;55.840;37.442;2023-09-19T08:30:15;19.02;;;15.70;;
56073;SDS011;41950;55.840;37.442;2023-09-19T08:32:43;18.63;;;16.83;;
56073;SDS011;41950;55.840;37.442;2023-09-19T08:35:11;19.42;;;17.55;;
56073;SDS011;41950;55.840;37.442;2023-09-19T08:37:37;20.15;;;16.88;;
56073;SDS011;41950;55.840;37.442;2023-09-19T08:40:03;19.83;;;17.83;;
56073;SDS011;41950;55.840;37.442;2023-09-19T08:42:31;18.17;;;16.25;;
56073;SDS011;41950;55.840;37.442;2023-09-19T08:44:57;19.67;;;16.33;;
56073;SDS011;41950;55.840;37.442;2023-09-19T08:47:36;19.25;;;17.20;;
56073;SDS011;41950;55.840;37.442;2023-09-19T08:50:11;17.98;;;15.95;;
56073;SDS011;41950;55.840;37.442;2023-09-19T08:52:45;22.25;;;16.77;;
56073;SDS011;41950;55.840;37.442;2023-09-19T08:55:14;18.83;;;16.77;;
56073;SDS011;41950;55.840;37.442;2023-09-19T08:57:46;19.33;;;17.15;;
56073;SDS011;41950;55.840;37.442;2023-09-19T09:00:17;18.83;;;16.92;;
56073;SDS011;41950;55.840;37.442;2023-09-19T09:02:46;21.65;;;16.30;;
56073;SDS011;41950;55.840;37.442;2023-09-19T09:05:12;18.80;;;16.75;;
56073;SDS011;41950;55.840;37.442;2023-09-19T09:07:40;19.52;;;16.80;;
56073;SDS011;41950;55.840;37.442;2023-09-19T09:10:06;17.30;;;15.60;;
56073;SDS011;41950;55.840;37.442;2023-09-19T09:12:34;22.38;;;17.30;;
56073;SDS011;41950;55.840;37.442;2023-09-19T09:15:02;19.02;;;16.25;;
56073;SDS011;41950;55.840;37.442;2023-09-19T09:17:30;19.77;;;16.67;;
56073;SDS011;41950;55.840;37.442;2023-09-19T09:19:56;18.15;;;15.40;;
56073;SDS011;41950;55.840;37.442;2023-09-19T09:22:22;19.92;;;16.48;;
56073;SDS011;41950;55.840;37.442;2023-09-19T09:24:56;18.63;;;15.75;;
56073;SDS011;41950;55.840;37.442;2023-09-19T09:27:30;19.77;;;15.07;;
56073;SDS011;41950;55.840;37.442;2023-09-19T09:29:59;19.17;;;16.20;;
56073;SDS011;41950;55.840;37.442;2023-09-19T09:32:28;20.77;;;16.63;;
56073;SDS011;41950;55.840;37.442;2023-09-19T09:34:59;18.27;;;15.75;;
56073;SDS011;41950;55.840;37.442;2023-09-19T09:37:26;20.02;;;15.85;;
56073;SDS011;41950;55.840;37.442;2023-09-19T09:39:58;17.40;;;15.35;;
56073;SDS011;41950;55.840;37.442;2023-09-19T09:42:45;18.35;;;15.35;;
56073;SDS011;41950;55.840;37.442;2023-09-19T09:45:21;18.77;;;15.65;;
56073;SDS011;41950;55.840;37.442;2023-09-19T09:48:03;18.05;;;16.00;;
56073;SDS011;41950;55.840;37.442;2023-09-19T09:50:33;17.63;;;15.88;;
56073;SDS011;41950;55.840;37.442;2023-09-19T09:53:28;19.17;;;15.88;;
56073;SDS011;41950;55.840;37.442;2023-09-19T09:56:08;18.17;;;15.73;;
56073;SDS011;41950;55.840;37.442;2023-09-19T10:01:02;18.75;;;16.33;;
56073;SDS011;41950;55.840;37.442;2023-09-19T10:03:41;21.10;;;16.17;;
56073;SDS011;41950;55.840;37.442;2023-09-19T10:06:17;17.77;;;15.63;;
56073;SDS011;41950;55.840;37.442;2023-09-19T10:11:26;22.63;;;16.73;;
56073;SDS011;41950;55.840;37.442;2023-09-19T10:13:55;23.17;;;16.23;;
56073;SDS011;41950;55.840;37.442;2023-09-19T10:16:22;18.35;;;15.32;;
56073;SDS011;41950;55.840;37.442;2023-09-19T10:18:50;19.42;;;15.30;;
56073;SDS011;41950;55.840;37.442;2023-09-19T10:21:19;18.25;;;16.27;;
56073;SDS011;41950;55.840;37.442;2023-09-19T10:23:48;19.60;;;15.98;;
56073;SDS011;41950;55.840;37.442;2023-09-19T10:26:17;21.65;;;15.50;;
56073;SDS011;41950;55.840;37.442;2023-09-19T10:28:46;16.58;;;14.70;;
56073;SDS011;41950;55.840;37.442;2023-09-19T10:31:17;18.70;;;15.85;;
56073;SDS011;41950;55.840;37.442;2023-09-19T10:33:46;20.30;;;16.98;;
56073;SDS011;41950;55.840;37.442;2023-09-19T10:36:14;17.98;;;16.00;;
56073;SDS011;41950;55.840;37.442;2023-09-19T10:38:42;16.70;;;14.85;;
56073;SDS011;41950;55.840;37.442;2023-09-19T10:41:11;19.17;;;15.18;;
56073;SDS011;41950;55.840;37.442;2023-09-19T10:43:41;16.77;;;14.95;;
56073;SDS011;41950;55.840;37.442;2023-09-19T10:46:11;18.63;;;15.43;;
56073;SDS011;41950;55.840;37.442;2023-09-19T10:48:41;16.08;;;14.35;;
56073;SDS011;41950;55.840;37.442;2023-09-19T10:53:48;18.58;;;15.48;;
56073;SDS011;41950;55.840;37.442;2023-09-19T10:56:23;20.25;;;15.85;;
56073;SDS011;41950;55.840;37.442;2023-09-19T10:59:12;17.33;;;14.20;;
56073;SDS011;41950;55.840;37.442;2023-09-19T11:07:03;15.05;;;13.40;;
56073;SDS011;41950;55.840;37.442;2023-09-19T11:09:45;15.40;;;13.55;;
56073;SDS011;41950;55.840;37.442;2023-09-19T11:12:58;15.95;;;13.90;;
56073;SDS011;41950;55.840;37.442;2023-09-19T11:15:06;17.02;;;12.73;;
56073;SDS011;41950;55.840;37.442;2023-09-19T11:25:59;18.92;;;14.52;;
56073;SDS011;41950;55.840;37.442;2023-09-19T11:30:40;18.10;;;12.85;;
56073;SDS011;41950;55.840;37.442;2023-09-19T11:43:51;21.88;;;13.38;;
56073;SDS011;41950;55.840;37.442;2023-09-19T11:46:20;15.25;;;13.07;;
56073;SDS011;41950;55.840;37.442;2023-09-19T11:48:48;15.80;;;13.15;;
56073;SDS011;41950;55.840;37.442;2023-09-19T11:51:24;14.55;;;13.02;;
56073;SDS011;41950;55.840;37.442;2023-09-19T11:53:54;17.75;;;12.85;;
56073;SDS011;41950;55.840;37.442;2023-09-19T11:56:22;14.07;;;12.38;;
56073;SDS011;41950;55.840;37.442;2023-09-19T11:58:51;15.10;;;12.23;;
56073;SDS011;41950;55.840;37.442;2023-09-19T12:01:22;16.27;;;12.77;;
56073;SDS011;41950;55.840;37.442;2023-09-19T12:03:59;14.18;;;12.05;;
56073;SDS011;41950;55.840;37.442;2023-09-19T12:06:28;14.68;;;12.23;;
56073;SDS011;41950;55.840;37.442;2023-09-19T12:08:57;14.90;;;12.63;;
56073;SDS011;41950;55.840;37.442;2023-09-19T12:11:27;15.20;;;12.15;;
56073;SDS011;41950;55.840;37.442;2023-09-19T12:13:59;14.52;;;11.77;;
56073;SDS011;41950;55.840;37.442;2023-09-19T12:16:29;15.32;;;12.55;;
56073;SDS011;41950;55.840;37.442;2023-09-19T12:18:58;14.20;;;11.52;;
56073;SDS011;41950;55.840;37.442;2023-09-19T12:21:52;15.80;;;12.77;;
56073;SDS011;41950;55.840;37.442;2023-09-19T12:24:31;14.05;;;12.10;;
56073;SDS011;41950;55.840;37.442;2023-09-19T12:27:01;13.73;;;12.25;;
56073;SDS011;41950;55.840;37.442;2023-09-19T12:29:30;13.98;;;12.25;;
56073;SDS011;41950;55.840;37.442;2023-09-19T12:31:58;14.82;;;11.80;;
56073;SDS011;41950;55.840;37.442;2023-09-19T12:34:29;14.95;;;11.82;;
56073;SDS011;41950;55.840;37.442;2023-09-19T12:37:09;12.82;;;10.10;;
56073;SDS011;41950;55.840;37.442;2023-09-19T12:40:06;12.27;;;10.98;;
56073;SDS011;41950;55.840;37.442;2023-09-19T12:42:43;12.55;;;10.52;;
56073;SDS011;41950;55.840;37.442;2023-09-19T12:45:10;15.55;;;11.68;;
56073;SDS011;41950;55.840;37.442;2023-09-19T12:47:38;13.23;;;11.85;;
56073;SDS011;41950;55.840;37.442;2023-09-19T12:50:09;16.52;;;13.00;;
56073;SDS011;41950;55.840;37.442;2023-09-19T12:52:39;13.18;;;10.82;;
56073;SDS011;41950;55.840;37.442;2023-09-19T12:55:07;13.70;;;11.52;;
56073;SDS011;41950;55.840;37.442;2023-09-19T12:57:34;15.25;;;11.57;;
56073;SDS011;41950;55.840;37.442;2023-09-19T13:00:04;12.95;;;9.95;;
56073;SDS011;41950;55.840;37.442;2023-09-19T13:02:36;15.10;;;11.38;;
56073;SDS011;41950;55.840;37.442;2023-09-19T13:05:03;13.75;;;10.73;;
56073;SDS011;41950;55.840;37.442;2023-09-19T13:07:44;14.50;;;10.77;;
56073;SDS011;41950;55.840;37.442;2023-09-19T13:10:12;14.00;;;11.50;;
56073;SDS011;41950;55.840;37.442;2023-09-19T13:12:42;13.85;;;11.52;;
56073;SDS011;41950;55.840;37.442;2023-09-19T13:15:13;13.15;;;11.55;;
56073;SDS011;41950;55.840;37.442;2023-09-19T13:17:45;15.43;;;11.32;;
56073;SDS011;41950;55.840;37.442;2023-09-19T13:20:24;17.42;;;11.35;;
56073;SDS011;41950;55.840;37.442;2023-09-19T13:22:55;15.73;;;11.70;;
56073;SDS011;41950;55.840;37.442;2023-09-19T13:25:26;15.35;;;11.32;;
56073;SDS011;41950;55.840;37.442;2023-09-19T13:27:55;12.27;;;10.98;;
56073;SDS011;41950;55.840;37.442;2023-09-19T13:30:23;12.27;;;10.30;;
56073;SDS011;41950;55.840;37.442;2023-09-19T13:32:50;16.10;;;10.48;;
56073;SDS011;41950;55.840;37.442;2023-09-19T13:35:18;16.23;;;10.80;;
56073;SDS011;41950;55.840;37.442;2023-09-19T13:37:43;14.40;;;10.93;;
56073;SDS011;41950;55.840;37.442;2023-09-19T13:40:17;15.15;;;11.15;;
56073;SDS011;41950;55.840;37.442;2023-09-19T13:42:43;17.15;;;11.52;;
56073;SDS011;41950;55.840;37.442;2023-09-19T13:45:09;15.43;;;10.45;;
56073;SDS011;41950;55.840;37.442;2023-09-19T13:47:38;13.35;;;10.80;;
56073;SDS011;41950;55.840;37.442;2023-09-19T13:50:04;16.63;;;12.45;;
56073;SDS011;41950;55.840;37.442;2023-09-19T13:52:30;14.52;;;11.57;;
56073;SDS011;41950;55.840;37.442;2023-09-19T13:54:57;16.42;;;10.30;;
56073;SDS011;41950;55.840;37.442;2023-09-19T13:57:26;14.38;;;10.32;;
56073;SDS011;41950;55.840;37.442;2023-09-19T13:59:52;14.05;;;8.65;;
56073;SDS011;41950;55.840;37.442;2023-09-19T14:02:21;16.52;;;9.50;;
56073;SDS011;41950;55.840;37.442;2023-09-19T14:04:54;11.40;;;7.30;;
56073;SDS011;41950;55.840;37.442;2023-09-19T14:07:20;8.77;;;7.57;;
56073;SDS011;41950;55.840;37.442;2023-09-19T14:09:46;10.50;;;6.50;;
56073;SDS011;41950;55.840;37.442;2023-09-19T14:12:13;9.45;;;7.15;;
56073;SDS011;41950;55.840;37.442;2023-09-19T14:14:40;10.00;;;6.72;;
56073;SDS011;41950;55.840;37.442;2023-09-19T14:17:07;9.30;;;5.85;;
56073;SDS011;41950;55.840;37.442;2023-09-19T14:19:33;8.93;;;6.15;;
56073;SDS011;41950;55.840;37.442;2023-09-19T14:22:00;9.75;;;6.20;;
56073;SDS011;41950;55.840;37.442;2023-09-19T14:24:32;11.60;;;7.07;;
56073;SDS011;41950;55.840;37.442;2023-09-19T14:26:58;11.38;;;6.30;;
56073;SDS011;41950;55.840;37.442;2023-09-19T14:29:24;10.82;;;6.40;;
56073;SDS011;41950;55.840;37.442;2023-09-19T14:31:50;15.13;;;7.20;;
56073;SDS011;41950;55.840;37.442;2023-09-19T14:34:17;15.70;;;6.85;;
56073;SDS011;41950;55.840;37.442;2023-09-19T14:36:42;11.20;;;7.40;;
56073;SDS011;41950;55.840;37.442;2023-09-19T14:39:08;12.95;;;6.65;;
56073;SDS011;41950;55.840;37.442;2023-09-19T14:41:34;16.63;;;6.53;;
56073;SDS011;41950;55.840;37.442;2023-09-19T14:44:01;11.95;;;6.65;;
56073;SDS011;41950;55.840;37.442;2023-09-19T14:46:28;11.65;;;6.80;;
56073;SDS011;41950;55.840;37.442;2023-09-19T14:48:53;12.98;;;6.93;;
56073;SDS011;41950;55.840;37.442;2023-09-19T14:51:22;11.27;;;6.97;;
56073;SDS011;41950;55.840;37.442;2023-09-19T14:53:48;13.43;;;7.65;;
56073;SDS011;41950;55.840;37.442;2023-09-19T14:56:14;14.05;;;6.93;;
56073;SDS011;41950;55.840;37.442;2023-09-19T14:58:45;16.85;;;8.05;;
56073;SDS011;41950;55.840;37.442;2023-09-19T15:01:13;17.10;;;8.65;;
56073;SDS011;41950;55.840;37.442;2023-09-19T15:03:41;19.13;;;9.00;;
56073;SDS011;41950;55.840;37.442;2023-09-19T15:06:08;14.50;;;7.32;;
56073;SDS011;41950;55.840;37.442;2023-09-19T15:08:39;15.45;;;7.82;;
56073;SDS011;41950;55.840;37.442;2023-09-19T15:11:11;15.05;;;7.80;;
56073;SDS011;41950;55.840;37.442;2023-09-19T15:13:38;16.73;;;8.75;;
56073;SDS011;41950;55.840;37.442;2023-09-19T15:16:04;16.88;;;8.25;;